createdAt,value
2019-05-12T00:02:01.960Z,6.60
2019-05-12T00:06:08.606Z,6.60
2019-05-12T00:10:12.150Z,6.60
2019-05-12T00:14:17.822Z,6.50
2019-05-12T00:18:22.181Z,6.50
2019-05-12T00:22:29.793Z,6.40
2019-05-12T00:26:34.028Z,6.40
2019-05-12T00:30:41.359Z,6.40
2019-05-12T00:34:47.919Z,6.30
2019-05-12T00:38:51.450Z,6.30
2019-05-12T00:42:57.745Z,6.30
2019-05-12T00:47:01.557Z,6.20
2019-05-12T00:51:07.800Z,6.20
2019-05-12T00:55:11.725Z,6.20
2019-05-12T00:59:15.900Z,6.20
2019-05-12T01:03:20.204Z,6.10
2019-05-12T01:07:24.503Z,6.10
2019-05-12T01:11:28.802Z,6.10
2019-05-12T01:15:32.967Z,6.10
2019-05-12T01:19:37.480Z,6.10
2019-05-12T01:23:53.763Z,6.00
2019-05-12T01:27:48.920Z,6.00
2019-05-12T01:32:21.096Z,6.00
2019-05-12T01:36:25.392Z,5.90
2019-05-12T01:40:29.584Z,5.90
2019-05-12T01:44:33.824Z,5.80
2019-05-12T01:48:38.041Z,5.80
2019-05-12T01:52:42.262Z,5.80
2019-05-12T01:56:48.292Z,5.70
2019-05-12T02:00:52.328Z,5.70
2019-05-12T02:05:09.648Z,5.60
2019-05-12T02:09:18.543Z,5.60
2019-05-12T02:13:22.019Z,5.60
2019-05-12T02:17:28.318Z,5.50
2019-05-12T02:21:32.099Z,5.50
2019-05-12T02:25:38.092Z,5.40
2019-05-12T02:29:42.251Z,5.40
2019-05-12T02:33:46.466Z,5.40
2019-05-12T02:37:50.688Z,5.40
2019-05-12T02:41:54.909Z,5.30
2019-05-12T02:45:59.149Z,5.30
2019-05-12T02:50:05.293Z,5.30
2019-05-12T02:54:09.860Z,5.20
2019-05-12T02:58:16.253Z,5.20
2019-05-12T03:02:24.201Z,5.20
2019-05-12T03:06:29.128Z,5.20
2019-05-12T03:10:35.534Z,5.20
2019-05-12T03:14:41.123Z,5.10
2019-05-12T03:18:45.777Z,5.10
2019-05-12T03:22:49.971Z,5.10
2019-05-12T03:26:55.305Z,5.20
2019-05-12T03:30:59.667Z,5.20
2019-05-12T03:35:08.866Z,5.20
2019-05-12T03:39:09.845Z,5.20
2019-05-12T03:43:14.704Z,5.20
2019-05-12T03:47:19.294Z,5.20
2019-05-12T03:51:25.076Z,5.20
2019-05-12T03:55:35.981Z,5.20
2019-05-12T03:59:35.385Z,5.30
2019-05-12T04:03:39.611Z,5.30
2019-05-12T04:07:45.019Z,5.40
2019-05-12T04:11:49.520Z,5.40
2019-05-12T04:15:55.631Z,5.50
2019-05-12T04:19:59.611Z,5.50
2019-05-12T04:24:05.478Z,5.50
2019-05-12T04:28:09.692Z,5.50
2019-05-12T04:32:14.557Z,5.60
2019-05-12T04:36:18.840Z,5.70
2019-05-12T04:40:24.794Z,5.70
2019-05-12T04:44:28.944Z,5.80
2019-05-12T04:48:35.821Z,5.90
2019-05-12T04:52:39.005Z,6.00
2019-05-12T04:56:44.573Z,6.10
2019-05-12T05:00:49.048Z,6.10
2019-05-12T05:04:54.710Z,6.20
2019-05-12T05:08:58.963Z,6.30
2019-05-12T05:13:05.164Z,6.40
2019-05-12T05:17:09.065Z,6.40
2019-05-12T05:21:13.904Z,6.50
2019-05-12T05:25:18.300Z,6.60
2019-05-12T05:29:24.022Z,6.60
2019-05-12T05:33:28.307Z,6.70
2019-05-12T05:37:36.925Z,6.70
2019-05-12T05:41:40.083Z,6.70
2019-05-12T05:45:44.764Z,6.70
2019-05-12T05:49:48.977Z,6.70
2019-05-12T05:53:54.003Z,6.70
2019-05-12T05:57:59.819Z,6.80
2019-05-12T06:02:05.059Z,6.80
2019-05-12T06:06:12.394Z,6.90
2019-05-12T06:10:15.282Z,7.00
2019-05-12T06:14:19.506Z,7.10
2019-05-12T06:18:24.049Z,7.20
2019-05-12T06:22:28.347Z,7.30
2019-05-12T06:26:35.595Z,7.40
2019-05-12T06:30:44.157Z,7.50
2019-05-12T06:34:44.282Z,7.70
2019-05-12T06:38:48.512Z,7.80
2019-05-12T06:42:57.047Z,7.90
2019-05-12T06:47:03.544Z,8.00
2019-05-12T06:51:09.278Z,8.10
2019-05-12T06:55:14.589Z,8.20
2019-05-12T06:59:19.222Z,8.40
2019-05-12T07:03:25.792Z,8.50
2019-05-12T07:07:33.433Z,8.70
2019-05-12T07:11:44.877Z,8.80
2019-05-12T07:15:41.822Z,9.00
2019-05-12T07:19:47.277Z,9.10
2019-05-12T07:23:53.345Z,9.30
2019-05-12T07:28:00.834Z,9.40
2019-05-12T07:32:15.020Z,9.60
2019-05-12T07:36:14.080Z,9.70
2019-05-12T07:40:19.032Z,9.90
2019-05-12T07:44:26.320Z,10.10
2019-05-12T07:48:30.615Z,10.20
2019-05-12T07:52:34.816Z,10.40
2019-05-12T07:56:40.905Z,10.50
2019-05-12T08:00:44.994Z,10.60
2019-05-12T08:04:49.444Z,10.80
2019-05-12T08:08:58.726Z,11.10
2019-05-12T08:13:00.867Z,11.30
2019-05-12T08:17:10.935Z,11.50
2019-05-12T08:21:13.802Z,11.60
2019-05-12T08:25:18.889Z,11.70
2019-05-12T08:29:24.280Z,11.80
2019-05-12T08:33:29.305Z,11.90
2019-05-12T08:37:33.544Z,12.10
2019-05-12T08:41:37.824Z,12.10
2019-05-12T08:45:44.183Z,12.10
2019-05-12T08:49:55.086Z,12.20
2019-05-12T08:54:02.429Z,12.30
2019-05-12T08:58:00.308Z,12.40
2019-05-12T09:02:07.356Z,12.60
2019-05-12T09:06:15.579Z,12.90
2019-05-12T09:10:16.770Z,13.00
2019-05-12T09:14:21.010Z,13.10
2019-05-12T09:18:33.581Z,13.20
2019-05-12T09:22:31.107Z,13.40
2019-05-12T09:26:35.342Z,13.60
2019-05-12T09:30:40.102Z,13.90
2019-05-12T09:34:52.584Z,14.20
2019-05-12T09:38:53.700Z,14.50
2019-05-12T09:43:00.367Z,14.60
2019-05-12T09:47:04.075Z,14.80
2019-05-12T09:51:08.949Z,14.90
2019-05-12T09:55:14.819Z,14.90
2019-05-12T09:59:23.122Z,14.90
2019-05-12T10:08:29.367Z,15.20
2019-05-12T10:12:38.737Z,15.70
2019-05-12T10:16:39.439Z,15.80
2019-05-12T10:20:44.345Z,15.90
2019-05-12T10:24:55.957Z,15.80
2019-05-12T10:28:58.292Z,15.90
2019-05-12T10:33:00.472Z,16.00
2019-05-12T10:37:04.777Z,16.20
2019-05-12T10:41:09.042Z,16.50
2019-05-12T10:45:18.601Z,16.80
2019-05-12T10:49:19.658Z,17.20
2019-05-12T10:58:19.584Z,17.60
2019-05-12T11:02:26.581Z,17.50
2019-05-12T11:06:29.803Z,17.30
2019-05-12T11:10:34.005Z,17.30
2019-05-12T11:14:38.247Z,17.30
2019-05-12T11:18:43.688Z,17.50
2019-05-12T11:27:13.410Z,17.50
2019-05-12T11:31:36.920Z,17.20
2019-05-12T11:35:43.365Z,16.90
2019-05-12T11:39:47.623Z,16.70
2019-05-12T11:43:51.996Z,16.80
2019-05-12T11:48:04.754Z,17.00
2019-05-12T11:52:07.482Z,17.20
2019-05-12T11:56:09.246Z,17.30
2019-05-12T12:00:16.004Z,17.30
2019-05-12T12:04:20.232Z,17.30
2019-05-12T12:08:26.206Z,17.30
2019-05-12T12:12:30.339Z,17.20
2019-05-12T12:16:34.580Z,17.00
2019-05-12T12:20:38.916Z,16.80
2019-05-12T12:24:43.665Z,16.60
2019-05-12T12:29:07.095Z,16.60
2019-05-12T12:33:11.326Z,16.70
2019-05-12T12:37:18.765Z,16.90
2019-05-12T12:41:23.579Z,17.00
2019-05-12T12:45:52.656Z,17.30
2019-05-12T12:49:56.984Z,17.50
2019-05-12T12:54:03.156Z,17.70
2019-05-12T12:58:07.036Z,17.70
2019-05-12T13:02:11.296Z,17.60
2019-05-12T13:06:17.383Z,17.40
2019-05-12T13:10:21.607Z,17.10
2019-05-12T13:14:28.560Z,16.90
2019-05-12T13:18:33.882Z,16.70
2019-05-12T13:22:37.547Z,16.50
2019-05-12T13:26:43.587Z,16.40
2019-05-12T13:30:49.718Z,16.30
2019-05-12T13:34:53.595Z,16.20
2019-05-12T13:38:57.815Z,16.10
2019-05-12T13:43:03.870Z,16.10
2019-05-12T13:47:07.988Z,16.20
2019-05-12T13:51:15.239Z,16.40
2019-05-12T13:55:18.099Z,16.60
2019-05-12T13:59:25.294Z,16.70
2019-05-12T14:03:28.299Z,16.80
2019-05-12T14:07:34.544Z,16.90
2019-05-12T14:11:38.600Z,17.00
2019-05-12T14:15:44.279Z,17.10
2019-05-12T14:19:48.662Z,16.90
2019-05-12T14:23:52.863Z,16.70
2019-05-12T14:27:59.282Z,16.40
2019-05-12T14:32:05.266Z,16.20
2019-05-12T14:36:13.708Z,16.00
2019-05-12T14:40:14.959Z,16.10
2019-05-12T14:44:20.006Z,16.20
2019-05-12T14:48:24.240Z,16.40
2019-05-12T14:52:28.506Z,16.60
2019-05-12T14:56:33.800Z,16.70
2019-05-12T15:00:38.107Z,16.80
2019-05-12T15:04:43.557Z,16.90
2019-05-12T15:08:47.896Z,16.90
2019-05-12T15:12:54.220Z,16.80
2019-05-12T15:16:58.208Z,16.80
2019-05-12T15:21:03.573Z,16.60
2019-05-12T15:25:07.913Z,16.50
2019-05-12T15:29:18.020Z,16.50
2019-05-12T15:33:18.039Z,16.70
2019-05-12T15:37:23.824Z,16.90
2019-05-12T15:41:28.109Z,17.40
2019-05-12T15:45:34.160Z,17.50
2019-05-12T15:49:38.206Z,17.90
2019-05-12T15:53:44.620Z,18.10
2019-05-12T15:57:48.475Z,18.50
2019-05-12T16:01:57.297Z,19.00
2019-05-12T16:06:01.270Z,19.50
2019-05-12T16:10:05.347Z,20.00
2019-05-12T16:14:09.573Z,20.50
2019-05-12T16:18:14.510Z,21.00
2019-05-12T16:22:18.736Z,21.40
2019-05-12T16:26:24.211Z,21.70
2019-05-12T16:30:28.646Z,21.90
2019-05-12T16:34:36.146Z,22.10
2019-05-12T16:38:38.833Z,22.10
2019-05-12T16:42:48.334Z,21.90
2019-05-12T16:46:48.937Z,21.70
2019-05-12T16:50:53.179Z,21.20
2019-05-12T16:54:57.405Z,20.70
2019-05-12T16:59:07.202Z,20.30
2019-05-12T17:03:07.640Z,19.80
2019-05-12T17:07:17.064Z,19.30
2019-05-12T17:11:26.331Z,18.70
2019-05-12T17:15:23.847Z,18.20
2019-05-12T17:19:28.076Z,17.70
2019-05-12T17:23:32.307Z,17.20
2019-05-12T17:27:36.539Z,16.80
2019-05-12T17:31:40.784Z,16.40
2019-05-12T17:35:45.034Z,16.00
2019-05-12T17:39:49.260Z,15.70
2019-05-12T17:44:00.933Z,15.50
2019-05-12T17:48:02.670Z,15.20
2019-05-12T17:52:13.377Z,14.90
2019-05-12T17:56:13.776Z,14.60
2019-05-12T18:00:17.643Z,14.40
2019-05-12T18:04:26.597Z,14.20
2019-05-12T18:08:32.772Z,14.00
2019-05-12T18:12:39.370Z,13.80
2019-05-12T18:16:39.572Z,13.50
2019-05-12T18:20:44.976Z,13.50
2019-05-12T18:24:50.875Z,13.30
2019-05-12T18:28:55.288Z,13.20
2019-05-12T18:33:04.314Z,13.00
2019-05-12T18:37:05.543Z,12.80
2019-05-12T18:41:09.744Z,12.60
2019-05-12T18:45:17.970Z,12.50
2019-05-12T18:49:19.965Z,12.30
2019-05-12T18:53:31.364Z,12.20
2019-05-12T18:57:30.205Z,11.90
2019-05-12T19:01:34.675Z,11.90
2019-05-12T19:05:38.914Z,11.80
2019-05-12T19:09:46.659Z,11.70
2019-05-12T19:13:56.851Z,11.50
2019-05-12T19:17:54.908Z,11.40
2019-05-12T19:22:06.791Z,11.20
2019-05-12T19:26:05.133Z,11.10
2019-05-12T19:30:09.495Z,10.90
2019-05-12T19:34:20.022Z,10.80
2019-05-12T19:38:19.579Z,10.70
2019-05-12T19:42:24.410Z,10.60
2019-05-12T19:46:28.881Z,10.50
2019-05-12T19:50:33.120Z,10.40
2019-05-12T19:54:37.362Z,10.30
2019-05-12T19:58:43.194Z,10.20
2019-05-12T20:02:47.412Z,10.00
2019-05-12T20:06:51.676Z,9.90
2019-05-12T20:10:55.883Z,9.80
2019-05-12T20:15:00.183Z,9.70
2019-05-12T20:19:04.487Z,9.60
2019-05-12T20:23:08.732Z,9.50
2019-05-12T20:27:17.383Z,9.40
2019-05-12T20:31:18.891Z,9.30
2019-05-12T20:35:23.131Z,9.30
2019-05-12T20:39:28.941Z,9.20
2019-05-12T20:43:36.708Z,9.10
2019-05-12T20:47:44.700Z,9.10
2019-05-12T20:51:48.175Z,9.00
2019-05-12T20:55:50.802Z,9.00
2019-05-12T20:59:58.243Z,8.90
2019-05-12T21:04:03.498Z,8.80
2019-05-12T21:08:11.681Z,8.80
2019-05-12T21:12:13.807Z,8.70
2019-05-12T21:16:25.193Z,8.60
2019-05-12T21:20:24.362Z,8.50
2019-05-12T21:24:29.422Z,8.50
2019-05-12T21:28:37.095Z,8.40
2019-05-12T21:32:40.406Z,8.30
2019-05-12T21:36:44.677Z,8.30
2019-05-12T21:40:48.933Z,8.20
2019-05-12T21:45:04.633Z,8.20
2019-05-12T21:49:11.867Z,8.10
2019-05-12T21:53:17.649Z,8.00
2019-05-12T21:57:27.481Z,8.00
2019-05-12T22:01:26.779Z,7.90
2019-05-12T22:05:47.999Z,7.90
2019-05-12T22:09:41.425Z,7.80
2019-05-12T22:13:46.777Z,7.80
2019-05-12T22:18:03.976Z,7.70
2019-05-12T22:22:06.947Z,7.60
2019-05-12T22:26:11.139Z,7.60
2019-05-12T22:30:15.355Z,7.50
2019-05-12T22:34:19.727Z,7.40
2019-05-12T22:38:24.738Z,7.40
2019-05-12T22:42:29.250Z,7.30
2019-05-12T22:46:35.778Z,7.30
2019-05-12T22:50:39.513Z,7.20
2019-05-12T22:54:48.947Z,7.20
2019-05-12T22:58:52.003Z,7.10
2019-05-12T23:03:00.711Z,7.10
2019-05-12T23:07:01.371Z,7.00
2019-05-12T23:15:09.646Z,6.90
2019-05-12T23:19:15.130Z,6.80
2019-05-12T23:23:19.428Z,6.70
2019-05-12T23:27:28.153Z,6.70
2019-05-12T23:31:30.375Z,6.60
2019-05-12T23:35:39.476Z,6.50
2019-05-12T23:39:40.494Z,6.40
2019-05-12T23:43:44.716Z,6.40
2019-05-12T23:47:48.925Z,6.30
2019-05-12T23:51:54.244Z,6.30
2019-05-12T23:55:58.480Z,6.20
